sensor_id;sensor_type;location;lat;lon;timestamp;P1;durP1;ratioP1;P2;durP2;ratioP2
1414;SDS011;702;49.466;11.086;2023-07-02T00:00:02;1.40;;;1.30;;
1414;SDS011;702;49.466;11.086;2023-07-02T00:02:30;2.33;;;1.60;;
1414;SDS011;702;49.466;11.086;2023-07-02T00:04:58;1.30;;;1.20;;
1414;SDS011;702;49.466;11.086;2023-07-02T00:07:25;1.53;;;1.43;;
1414;SDS011;702;49.466;11.086;2023-07-02T00:09:52;1.50;;;1.20;;
1414;SDS011;702;49.466;11.086;2023-07-02T00:12:19;2.17;;;1.40;;
1414;SDS011;702;49.466;11.086;2023-07-02T00:14:48;1.77;;;1.67;;
1414;SDS011;702;49.466;11.086;2023-07-02T00:17:18;3.93;;;1.70;;
1414;SDS011;702;49.466;11.086;2023-07-02T00:19:45;2.00;;;1.80;;
1414;SDS011;702;49.466;11.086;2023-07-02T00:22:16;2.00;;;1.80;;
1414;SDS011;702;49.466;11.086;2023-07-02T00:24:43;2.57;;;1.70;;
1414;SDS011;702;49.466;11.086;2023-07-02T00:27:11;2.40;;;2.20;;
1414;SDS011;702;49.466;11.086;2023-07-02T00:29:40;2.70;;;2.20;;
1414;SDS011;702;49.466;11.086;2023-07-02T00:32:09;3.50;;;2.20;;
1414;SDS011;702;49.466;11.086;2023-07-02T00:34:36;2.33;;;2.13;;
1414;SDS011;702;49.466;11.086;2023-07-02T00:37:05;2.33;;;2.13;;
1414;SDS011;702;49.466;11.086;2023-07-02T00:39:33;2.23;;;2.03;;
1414;SDS011;702;49.466;11.086;2023-07-02T00:42:00;2.47;;;2.27;;
1414;SDS011;702;49.466;11.086;2023-07-02T00:44:30;2.23;;;2.00;;
1414;SDS011;702;49.466;11.086;2023-07-02T00:46:57;2.33;;;2.13;;
1414;SDS011;702;49.466;11.086;2023-07-02T00:49:26;3.13;;;2.60;;
1414;SDS011;702;49.466;11.086;2023-07-02T00:51:55;2.57;;;2.33;;
1414;SDS011;702;49.466;11.086;2023-07-02T00:54:23;2.37;;;2.17;;
1414;SDS011;702;49.466;11.086;2023-07-02T00:56:50;2.40;;;2.20;;
1414;SDS011;702;49.466;11.086;2023-07-02T00:59:18;2.23;;;2.00;;
1414;SDS011;702;49.466;11.086;2023-07-02T01:01:45;2.60;;;2.40;;
1414;SDS011;702;49.466;11.086;2023-07-02T01:04:16;3.20;;;2.53;;
1414;SDS011;702;49.466;11.086;2023-07-02T01:06:45;3.03;;;2.67;;
1414;SDS011;702;49.466;11.086;2023-07-02T01:09:13;2.53;;;2.33;;
1414;SDS011;702;49.466;11.086;2023-07-02T01:11:41;3.30;;;2.40;;
1414;SDS011;702;49.466;11.086;2023-07-02T01:14:13;3.07;;;2.70;;
1414;SDS011;702;49.466;11.086;2023-07-02T01:16:46;2.00;;;1.80;;
1414;SDS011;702;49.466;11.086;2023-07-02T01:19:16;2.13;;;1.80;;
1414;SDS011;702;49.466;11.086;2023-07-02T01:21:49;3.27;;;2.63;;
1414;SDS011;702;49.466;11.086;2023-07-02T01:24:17;2.47;;;2.30;;
1414;SDS011;702;49.466;11.086;2023-07-02T01:26:46;2.97;;;2.40;;
1414;SDS011;702;49.466;11.086;2023-07-02T01:29:15;3.43;;;2.37;;
1414;SDS011;702;49.466;11.086;2023-07-02T01:31:42;2.50;;;2.30;;
1414;SDS011;702;49.466;11.086;2023-07-02T01:34:10;3.70;;;2.37;;
1414;SDS011;702;49.466;11.086;2023-07-02T01:36:38;2.80;;;2.50;;
1414;SDS011;702;49.466;11.086;2023-07-02T01:39:08;2.53;;;2.20;;
1414;SDS011;702;49.466;11.086;2023-07-02T01:41:37;2.90;;;2.37;;
1414;SDS011;702;49.466;11.086;2023-07-02T01:44:09;2.30;;;2.10;;
1414;SDS011;702;49.466;11.086;2023-07-02T01:46:37;2.10;;;1.90;;
1414;SDS011;702;49.466;11.086;2023-07-02T01:49:04;2.00;;;1.80;;
1414;SDS011;702;49.466;11.086;2023-07-02T01:51:31;2.67;;;2.00;;
1414;SDS011;702;49.466;11.086;2023-07-02T01:54:00;2.67;;;2.37;;
1414;SDS011;702;49.466;11.086;2023-07-02T01:56:30;2.63;;;2.43;;
1414;SDS011;702;49.466;11.086;2023-07-02T01:58:58;2.33;;;2.13;;
1414;SDS011;702;49.466;11.086;2023-07-02T02:01:25;2.30;;;2.10;;
1414;SDS011;702;49.466;11.086;2023-07-02T02:03:53;2.30;;;2.07;;
1414;SDS011;702;49.466;11.086;2023-07-02T02:06:20;3.23;;;2.13;;
1414;SDS011;702;49.466;11.086;2023-07-02T02:08:47;1.97;;;1.87;;
1414;SDS011;702;49.466;11.086;2023-07-02T02:11:14;2.53;;;2.33;;
1414;SDS011;702;49.466;11.086;2023-07-02T02:13:43;2.40;;;2.20;;
1414;SDS011;702;49.466;11.086;2023-07-02T02:16:10;2.30;;;2.10;;
1414;SDS011;702;49.466;11.086;2023-07-02T02:18:38;2.33;;;2.13;;
1414;SDS011;702;49.466;11.086;2023-07-02T02:21:05;2.07;;;1.90;;
1414;SDS011;702;49.466;11.086;2023-07-02T02:23:33;2.10;;;1.90;;
1414;SDS011;702;49.466;11.086;2023-07-02T02:26:00;2.80;;;2.50;;
1414;SDS011;702;49.466;11.086;2023-07-02T02:28:28;2.47;;;2.27;;
1414;SDS011;702;49.466;11.086;2023-07-02T02:30:57;3.10;;;2.10;;
1414;SDS011;702;49.466;11.086;2023-07-02T02:33:25;2.40;;;2.20;;
1414;SDS011;702;49.466;11.086;2023-07-02T02:35:54;3.13;;;2.20;;
1414;SDS011;702;49.466;11.086;2023-07-02T02:38:22;2.40;;;2.20;;
1414;SDS011;702;49.466;11.086;2023-07-02T02:40:49;2.53;;;2.33;;
1414;SDS011;702;49.466;11.086;2023-07-02T02:43:16;2.90;;;2.00;;
1414;SDS011;702;49.466;11.086;2023-07-02T02:45:46;2.60;;;2.40;;
1414;SDS011;702;49.466;11.086;2023-07-02T02:48:14;2.20;;;2.00;;
1414;SDS011;702;49.466;11.086;2023-07-02T02:50:42;2.47;;;2.27;;
1414;SDS011;702;49.466;11.086;2023-07-02T02:53:09;3.93;;;3.13;;
1414;SDS011;702;49.466;11.086;2023-07-02T02:55:37;2.90;;;2.20;;
1414;SDS011;702;49.466;11.086;2023-07-02T02:58:04;3.40;;;2.87;;
1414;SDS011;702;49.466;11.086;2023-07-02T03:00:32;2.97;;;2.50;;
1414;SDS011;702;49.466;11.086;2023-07-02T03:02:59;2.70;;;2.50;;
1414;SDS011;702;49.466;11.086;2023-07-02T03:05:28;3.17;;;1.83;;
1414;SDS011;702;49.466;11.086;2023-07-02T03:07:56;2.60;;;2.13;;
1414;SDS011;702;49.466;11.086;2023-07-02T03:10:23;2.43;;;2.23;;
1414;SDS011;702;49.466;11.086;2023-07-02T03:12:50;2.50;;;1.90;;
1414;SDS011;702;49.466;11.086;2023-07-02T03:15:19;2.00;;;1.90;;
1414;SDS011;702;49.466;11.086;2023-07-02T03:17:46;1.90;;;1.60;;
1414;SDS011;702;49.466;11.086;2023-07-02T03:20:13;3.80;;;1.97;;
1414;SDS011;702;49.466;11.086;2023-07-02T03:22:43;2.60;;;2.10;;
1414;SDS011;702;49.466;11.086;2023-07-02T03:25:10;2.40;;;2.20;;
1414;SDS011;702;49.466;11.086;2023-07-02T03:27:37;2.93;;;2.10;;
1414;SDS011;702;49.466;11.086;2023-07-02T03:30:06;2.90;;;1.90;;
1414;SDS011;702;49.466;11.086;2023-07-02T03:32:34;2.50;;;1.93;;
1414;SDS011;702;49.466;11.086;2023-07-02T03:35:01;3.10;;;2.17;;
1414;SDS011;702;49.466;11.086;2023-07-02T03:37:29;1.97;;;1.67;;
1414;SDS011;702;49.466;11.086;2023-07-02T03:39:58;2.73;;;2.20;;
1414;SDS011;702;49.466;11.086;2023-07-02T03:42:25;2.07;;;1.87;;
1414;SDS011;702;49.466;11.086;2023-07-02T03:44:52;2.17;;;1.57;;
1414;SDS011;702;49.466;11.086;2023-07-02T03:47:20;1.83;;;1.73;;
1414;SDS011;702;49.466;11.086;2023-07-02T03:49:48;2.77;;;2.10;;
1414;SDS011;702;49.466;11.086;2023-07-02T03:52:16;1.97;;;1.80;;
1414;SDS011;702;49.466;11.086;2023-07-02T03:54:43;1.90;;;1.70;;
1414;SDS011;702;49.466;11.086;2023-07-02T03:57:11;1.97;;;1.87;;
1414;SDS011;702;49.466;11.086;2023-07-02T03:59:39;1.40;;;1.20;;
1414;SDS011;702;49.466;11.086;2023-07-02T04:02:06;3.87;;;1.80;;
1414;SDS011;702;49.466;11.086;2023-07-02T04:04:34;2.13;;;1.93;;
1414;SDS011;702;49.466;11.086;2023-07-02T04:07:03;2.20;;;2.00;;
1414;SDS011;702;49.466;11.086;2023-07-02T04:09:31;3.47;;;1.70;;
1414;SDS011;702;49.466;11.086;2023-07-02T04:11:58;2.30;;;2.10;;
1414;SDS011;702;49.466;11.086;2023-07-02T04:14:28;2.10;;;1.90;;
1414;SDS011;702;49.466;11.086;2023-07-02T04:16:55;2.67;;;2.00;;
1414;SDS011;702;49.466;11.086;2023-07-02T04:19:23;2.13;;;1.90;;
1414;SDS011;702;49.466;11.086;2023-07-02T04:21:50;2.07;;;1.57;;
1414;SDS011;702;49.466;11.086;2023-07-02T04:24:17;1.60;;;1.50;;
1414;SDS011;702;49.466;11.086;2023-07-02T04:26:47;2.00;;;1.80;;
1414;SDS011;702;49.466;11.086;2023-07-02T04:29:15;2.67;;;2.00;;
1414;SDS011;702;49.466;11.086;2023-07-02T04:31:43;1.73;;;1.53;;
1414;SDS011;702;49.466;11.086;2023-07-02T04:34:11;2.30;;;1.87;;
1414;SDS011;702;49.466;11.086;2023-07-02T04:36:38;5.13;;;1.80;;
1414;SDS011;702;49.466;11.086;2023-07-02T04:39:06;1.77;;;1.40;;
1414;SDS011;702;49.466;11.086;2023-07-02T04:41:36;1.77;;;1.60;;
1414;SDS011;702;49.466;11.086;2023-07-02T04:44:04;2.00;;;1.53;;
1414;SDS011;702;49.466;11.086;2023-07-02T04:46:32;3.50;;;1.60;;
1414;SDS011;702;49.466;11.086;2023-07-02T04:49:01;1.83;;;1.63;;
1414;SDS011;702;49.466;11.086;2023-07-02T04:51:28;1.77;;;1.60;;
1414;SDS011;702;49.466;11.086;2023-07-02T04:53:56;2.30;;;1.50;;
1414;SDS011;702;49.466;11.086;2023-07-02T04:56:23;2.03;;;1.40;;
1414;SDS011;702;49.466;11.086;2023-07-02T04:58:52;2.30;;;1.70;;
1414;SDS011;702;49.466;11.086;2023-07-02T05:01:19;2.30;;;1.83;;
1414;SDS011;702;49.466;11.086;2023-07-02T05:03:47;2.67;;;1.13;;
1414;SDS011;702;49.466;11.086;2023-07-02T05:06:15;1.70;;;1.60;;
1414;SDS011;702;49.466;11.086;2023-07-02T05:08:43;1.80;;;1.70;;
1414;SDS011;702;49.466;11.086;2023-07-02T05:11:10;2.93;;;1.63;;
1414;SDS011;702;49.466;11.086;2023-07-02T05:13:38;1.77;;;1.50;;
1414;SDS011;702;49.466;11.086;2023-07-02T05:16:05;2.00;;;1.73;;
1414;SDS011;702;49.466;11.086;2023-07-02T05:18:32;2.20;;;1.70;;
1414;SDS011;702;49.466;11.086;2023-07-02T05:21:00;3.63;;;1.80;;
1414;SDS011;702;49.466;11.086;2023-07-02T05:23:29;2.40;;;1.30;;
1414;SDS011;702;49.466;11.086;2023-07-02T05:25:56;3.63;;;1.50;;
1414;SDS011;702;49.466;11.086;2023-07-02T05:28:24;2.07;;;1.43;;
1414;SDS011;702;49.466;11.086;2023-07-02T05:30:52;3.00;;;1.80;;
1414;SDS011;702;49.466;11.086;2023-07-02T05:33:19;2.30;;;1.67;;
1414;SDS011;702;49.466;11.086;2023-07-02T05:35:47;1.70;;;1.50;;
1414;SDS011;702;49.466;11.086;2023-07-02T05:38:15;1.87;;;1.70;;
1414;SDS011;702;49.466;11.086;2023-07-02T05:40:45;4.30;;;2.37;;
1414;SDS011;702;49.466;11.086;2023-07-02T05:43:13;3.90;;;2.10;;
1414;SDS011;702;49.466;11.086;2023-07-02T05:45:40;3.90;;;2.07;;
1414;SDS011;702;49.466;11.086;2023-07-02T05:48:08;4.60;;;2.07;;
1414;SDS011;702;49.466;11.086;2023-07-02T05:50:35;3.00;;;1.93;;
1414;SDS011;702;49.466;11.086;2023-07-02T05:53:02;4.37;;;2.17;;
1414;SDS011;702;49.466;11.086;2023-07-02T05:55:30;3.13;;;1.93;;
1414;SDS011;702;49.466;11.086;2023-07-02T05:57:58;3.00;;;2.20;;
1414;SDS011;702;49.466;11.086;2023-07-02T06:00:27;5.53;;;2.60;;
1414;SDS011;702;49.466;11.086;2023-07-02T06:02:54;4.30;;;2.60;;
1414;SDS011;702;49.466;11.086;2023-07-02T06:05:22;2.73;;;2.47;;
1414;SDS011;702;49.466;11.086;2023-07-02T06:07:49;4.17;;;2.70;;
1414;SDS011;702;49.466;11.086;2023-07-02T06:10:16;3.27;;;2.53;;
1414;SDS011;702;49.466;11.086;2023-07-02T06:12:44;5.80;;;2.93;;
1414;SDS011;702;49.466;11.086;2023-07-02T06:15:12;5.00;;;3.23;;
1414;SDS011;702;49.466;11.086;2023-07-02T06:17:39;3.70;;;3.10;;
1414;SDS011;702;49.466;11.086;2023-07-02T06:20:07;4.20;;;3.13;;
1414;SDS011;702;49.466;11.086;2023-07-02T06:22:35;6.83;;;4.10;;
1414;SDS011;702;49.466;11.086;2023-07-02T06:25:03;8.30;;;4.80;;
1414;SDS011;702;49.466;11.086;2023-07-02T06:27:31;7.10;;;3.53;;
1414;SDS011;702;49.466;11.086;2023-07-02T06:29:58;4.90;;;3.27;;
1414;SDS011;702;49.466;11.086;2023-07-02T06:32:27;7.10;;;3.60;;
1414;SDS011;702;49.466;11.086;2023-07-02T06:34:54;8.53;;;4.30;;
1414;SDS011;702;49.466;11.086;2023-07-02T06:37:21;5.93;;;4.50;;
1414;SDS011;702;49.466;11.086;2023-07-02T06:39:49;6.87;;;4.70;;
1414;SDS011;702;49.466;11.086;2023-07-02T06:42:16;4.90;;;3.80;;
1414;SDS011;702;49.466;11.086;2023-07-02T06:44:43;9.43;;;4.60;;
1414;SDS011;702;49.466;11.086;2023-07-02T06:47:11;6.87;;;4.20;;
1414;SDS011;702;49.466;11.086;2023-07-02T06:49:39;7.03;;;4.80;;
1414;SDS011;702;49.466;11.086;2023-07-02T06:52:06;7.03;;;5.13;;
1414;SDS011;702;49.466;11.086;2023-07-02T06:54:34;7.50;;;4.57;;
1414;SDS011;702;49.466;11.086;2023-07-02T06:57:01;6.20;;;3.70;;
1414;SDS011;702;49.466;11.086;2023-07-02T06:59:29;5.83;;;4.20;;
1414;SDS011;702;49.466;11.086;2023-07-02T07:01:56;4.70;;;3.83;;
1414;SDS011;702;49.466;11.086;2023-07-02T07:04:24;4.67;;;3.63;;
1414;SDS011;702;49.466;11.086;2023-07-02T07:06:52;7.63;;;4.73;;
1414;SDS011;702;49.466;11.086;2023-07-02T07:09:20;7.03;;;4.70;;
1414;SDS011;702;49.466;11.086;2023-07-02T07:11:49;6.50;;;4.70;;
1414;SDS011;702;49.466;11.086;2023-07-02T07:14:16;5.60;;;3.63;;
1414;SDS011;702;49.466;11.086;2023-07-02T07:16:43;8.73;;;4.90;;
1414;SDS011;702;49.466;11.086;2023-07-02T07:19:10;7.93;;;4.80;;
1414;SDS011;702;49.466;11.086;2023-07-02T07:21:38;7.80;;;4.43;;
1414;SDS011;702;49.466;11.086;2023-07-02T07:24:07;5.53;;;4.50;;
1414;SDS011;702;49.466;11.086;2023-07-02T07:26:34;7.40;;;4.57;;
1414;SDS011;702;49.466;11.086;2023-07-02T07:29:03;9.30;;;5.10;;
1414;SDS011;702;49.466;11.086;2023-07-02T07:31:32;6.60;;;4.70;;
1414;SDS011;702;49.466;11.086;2023-07-02T07:33:59;8.80;;;4.23;;
1414;SDS011;702;49.466;11.086;2023-07-02T07:36:26;6.87;;;4.53;;
1414;SDS011;702;49.466;11.086;2023-07-02T07:38:53;9.20;;;5.77;;
1414;SDS011;702;49.466;11.086;2023-07-02T07:41:22;7.13;;;4.40;;
1414;SDS011;702;49.466;11.086;2023-07-02T07:43:50;8.03;;;4.60;;
1414;SDS011;702;49.466;11.086;2023-07-02T07:46:18;6.33;;;4.73;;
1414;SDS011;702;49.466;11.086;2023-07-02T07:48:46;6.93;;;4.90;;
1414;SDS011;702;49.466;11.086;2023-07-02T07:51:14;7.50;;;4.87;;
1414;SDS011;702;49.466;11.086;2023-07-02T07:53:41;7.53;;;5.60;;
1414;SDS011;702;49.466;11.086;2023-07-02T07:56:09;6.53;;;4.40;;
1414;SDS011;702;49.466;11.086;2023-07-02T07:58:37;5.97;;;4.47;;
1414;SDS011;702;49.466;11.086;2023-07-02T08:01:05;7.47;;;6.10;;
1414;SDS011;702;49.466;11.086;2023-07-02T08:03:32;5.43;;;4.60;;
1414;SDS011;702;49.466;11.086;2023-07-02T08:05:59;5.73;;;4.70;;
1414;SDS011;702;49.466;11.086;2023-07-02T08:08:28;7.30;;;3.37;;
1414;SDS011;702;49.466;11.086;2023-07-02T08:10:56;5.27;;;3.20;;
1414;SDS011;702;49.466;11.086;2023-07-02T08:13:24;4.33;;;3.53;;
1414;SDS011;702;49.466;11.086;2023-07-02T08:15:52;4.30;;;3.27;;
1414;SDS011;702;49.466;11.086;2023-07-02T08:18:20;8.23;;;4.20;;
1414;SDS011;702;49.466;11.086;2023-07-02T08:20:47;4.20;;;3.30;;
1414;SDS011;702;49.466;11.086;2023-07-02T08:23:14;5.10;;;3.73;;
1414;SDS011;702;49.466;11.086;2023-07-02T08:25:41;4.50;;;3.30;;
1414;SDS011;702;49.466;11.086;2023-07-02T08:28:09;3.67;;;3.03;;
1414;SDS011;702;49.466;11.086;2023-07-02T08:30:36;5.20;;;3.30;;
1414;SDS011;702;49.466;11.086;2023-07-02T08:33:05;5.30;;;3.00;;
1414;SDS011;702;49.466;11.086;2023-07-02T08:35:32;4.00;;;2.87;;
1414;SDS011;702;49.466;11.086;2023-07-02T08:37:59;4.87;;;3.10;;
1414;SDS011;702;49.466;11.086;2023-07-02T08:40:27;3.43;;;3.13;;
1414;SDS011;702;49.466;11.086;2023-07-02T08:42:54;3.97;;;3.00;;
1414;SDS011;702;49.466;11.086;2023-07-02T08:45:23;4.70;;;2.53;;
1414;SDS011;702;49.466;11.086;2023-07-02T08:47:50;3.53;;;2.80;;
1414;SDS011;702;49.466;11.086;2023-07-02T08:50:23;4.00;;;2.90;;
1414;SDS011;702;49.466;11.086;2023-07-02T08:52:50;3.93;;;2.60;;
1414;SDS011;702;49.466;11.086;2023-07-02T08:55:20;5.00;;;3.40;;
1414;SDS011;702;49.466;11.086;2023-07-02T08:57:49;5.40;;;3.37;;
1414;SDS011;702;49.466;11.086;2023-07-02T09:00:19;4.67;;;3.07;;
1414;SDS011;702;49.466;11.086;2023-07-02T09:02:47;5.17;;;3.20;;
1414;SDS011;702;49.466;11.086;2023-07-02T09:05:15;3.73;;;2.97;;
1414;SDS011;702;49.466;11.086;2023-07-02T09:07:47;3.30;;;2.17;;
1414;SDS011;702;49.466;11.086;2023-07-02T09:10:26;3.00;;;2.53;;
1414;SDS011;702;49.466;11.086;2023-07-02T09:13:03;4.03;;;3.07;;
1414;SDS011;702;49.466;11.086;2023-07-02T09:15:34;3.43;;;2.63;;
1414;SDS011;702;49.466;11.086;2023-07-02T09:18:13;3.17;;;2.70;;
1414;SDS011;702;49.466;11.086;2023-07-02T09:20:42;2.23;;;2.03;;
1414;SDS011;702;49.466;11.086;2023-07-02T09:23:11;3.70;;;3.13;;
1414;SDS011;702;49.466;11.086;2023-07-02T09:25:40;4.30;;;2.77;;
1414;SDS011;702;49.466;11.086;2023-07-02T09:28:14;3.67;;;2.77;;
1414;SDS011;702;49.466;11.086;2023-07-02T09:30:50;3.67;;;2.70;;
1414;SDS011;702;49.466;11.086;2023-07-02T09:33:20;3.10;;;2.80;;
1414;SDS011;702;49.466;11.086;2023-07-02T09:35:48;2.30;;;2.10;;
1414;SDS011;702;49.466;11.086;2023-07-02T09:38:18;5.07;;;2.30;;
1414;SDS011;702;49.466;11.086;2023-07-02T09:40:46;2.80;;;2.50;;
1414;SDS011;702;49.466;11.086;2023-07-02T09:43:16;4.47;;;3.40;;
1414;SDS011;702;49.466;11.086;2023-07-02T09:45:44;3.50;;;3.03;;
1414;SDS011;702;49.466;11.086;2023-07-02T09:48:13;3.53;;;2.73;;
1414;SDS011;702;49.466;11.086;2023-07-02T09:50:43;3.70;;;2.90;;
1414;SDS011;702;49.466;11.086;2023-07-02T09:53:12;3.97;;;3.00;;
1414;SDS011;702;49.466;11.086;2023-07-02T09:55:41;4.07;;;2.50;;
1414;SDS011;702;49.466;11.086;2023-07-02T09:58:09;5.73;;;2.77;;
1414;SDS011;702;49.466;11.086;2023-07-02T10:00:38;3.57;;;3.07;;
1414;SDS011;702;49.466;11.086;2023-07-02T10:03:06;6.77;;;2.67;;
1414;SDS011;702;49.466;11.086;2023-07-02T10:05:33;5.20;;;3.47;;
1414;SDS011;702;49.466;11.086;2023-07-02T10:08:11;3.37;;;2.80;;
1414;SDS011;702;49.466;11.086;2023-07-02T10:10:42;3.13;;;2.77;;
1414;SDS011;702;49.466;11.086;2023-07-02T10:13:09;3.80;;;3.13;;
1414;SDS011;702;49.466;11.086;2023-07-02T10:15:37;3.50;;;2.80;;
1414;SDS011;702;49.466;11.086;2023-07-02T10:18:05;3.80;;;2.80;;
1414;SDS011;702;49.466;11.086;2023-07-02T10:20:33;3.90;;;2.90;;
1414;SDS011;702;49.466;11.086;2023-07-02T10:23:02;3.20;;;2.60;;
1414;SDS011;702;49.466;11.086;2023-07-02T10:25:31;3.47;;;3.07;;
1414;SDS011;702;49.466;11.086;2023-07-02T10:28:14;4.33;;;2.77;;
1414;SDS011;702;49.466;11.086;2023-07-02T10:30:44;3.90;;;2.63;;
1414;SDS011;702;49.466;11.086;2023-07-02T10:33:14;3.73;;;3.10;;
1414;SDS011;702;49.466;11.086;2023-07-02T10:35:43;6.37;;;4.07;;
1414;SDS011;702;49.466;11.086;2023-07-02T10:38:14;4.73;;;3.30;;
1414;SDS011;702;49.466;11.086;2023-07-02T10:40:44;8.00;;;3.63;;
1414;SDS011;702;49.466;11.086;2023-07-02T10:43:24;4.67;;;3.57;;
1414;SDS011;702;49.466;11.086;2023-07-02T10:45:53;4.60;;;3.40;;
1414;SDS011;702;49.466;11.086;2023-07-02T10:48:21;3.73;;;3.20;;
1414;SDS011;702;49.466;11.086;2023-07-02T10:50:48;4.13;;;2.87;;
1414;SDS011;702;49.466;11.086;2023-07-02T10:53:16;5.30;;;3.87;;
1414;SDS011;702;49.466;11.086;2023-07-02T10:55:45;3.77;;;2.90;;
1414;SDS011;702;49.466;11.086;2023-07-02T10:58:19;6.80;;;3.60;;
1414;SDS011;702;49.466;11.086;2023-07-02T11:00:48;3.23;;;2.90;;
1414;SDS011;702;49.466;11.086;2023-07-02T11:03:17;4.63;;;3.03;;
1414;SDS011;702;49.466;11.086;2023-07-02T11:05:47;3.57;;;3.17;;
1414;SDS011;702;49.466;11.086;2023-07-02T11:08:14;4.80;;;3.27;;
1414;SDS011;702;49.466;11.086;2023-07-02T11:10:43;4.73;;;2.57;;
1414;SDS011;702;49.466;11.086;2023-07-02T11:13:10;4.50;;;3.27;;
1414;SDS011;702;49.466;11.086;2023-07-02T11:15:38;3.40;;;3.10;;
1414;SDS011;702;49.466;11.086;2023-07-02T11:18:11;4.60;;;3.37;;
1414;SDS011;702;49.466;11.086;2023-07-02T11:20:39;4.57;;;3.23;;
1414;SDS011;702;49.466;11.086;2023-07-02T11:23:16;4.30;;;3.27;;
1414;SDS011;702;49.466;11.086;2023-07-02T11:25:53;5.23;;;3.33;;
1414;SDS011;702;49.466;11.086;2023-07-02T11:28:23;4.40;;;3.77;;
1414;SDS011;702;49.466;11.086;2023-07-02T11:30:51;4.63;;;3.10;;
1414;SDS011;702;49.466;11.086;2023-07-02T11:33:31;4.07;;;3.47;;
1414;SDS011;702;49.466;11.086;2023-07-02T11:36:00;4.70;;;3.40;;
1414;SDS011;702;49.466;11.086;2023-07-02T11:38:27;4.10;;;3.10;;
1414;SDS011;702;49.466;11.086;2023-07-02T11:40:55;4.17;;;3.20;;
1414;SDS011;702;49.466;11.086;2023-07-02T11:43:22;8.23;;;4.20;;
1414;SDS011;702;49.466;11.086;2023-07-02T11:45:50;6.93;;;4.03;;
1414;SDS011;702;49.466;11.086;2023-07-02T11:48:17;4.27;;;3.10;;
1414;SDS011;702;49.466;11.086;2023-07-02T11:50:46;7.07;;;4.63;;
1414;SDS011;702;49.466;11.086;2023-07-02T11:53:14;6.10;;;4.30;;
1414;SDS011;702;49.466;11.086;2023-07-02T11:55:42;6.13;;;4.90;;
1414;SDS011;702;49.466;11.086;2023-07-02T11:58:09;6.43;;;4.93;;
1414;SDS011;702;49.466;11.086;2023-07-02T12:00:36;5.67;;;4.57;;
1414;SDS011;702;49.466;11.086;2023-07-02T12:03:04;11.00;;;5.50;;
1414;SDS011;702;49.466;11.086;2023-07-02T12:05:31;8.33;;;5.30;;
1414;SDS011;702;49.466;11.086;2023-07-02T12:08:03;11.33;;;5.30;;
1414;SDS011;702;49.466;11.086;2023-07-02T12:10:33;6.97;;;5.30;;
1414;SDS011;702;49.466;11.086;2023-07-02T12:13:01;7.07;;;5.57;;
1414;SDS011;702;49.466;11.086;2023-07-02T12:15:28;6.07;;;5.10;;
1414;SDS011;702;49.466;11.086;2023-07-02T12:17:55;7.60;;;5.47;;
1414;SDS011;702;49.466;11.086;2023-07-02T12:20:23;11.70;;;6.33;;
1414;SDS011;702;49.466;11.086;2023-07-02T12:22:50;8.70;;;5.57;;
1414;SDS011;702;49.466;11.086;2023-07-02T12:25:19;10.20;;;6.30;;
1414;SDS011;702;49.466;11.086;2023-07-02T12:27:46;10.33;;;6.10;;
1414;SDS011;702;49.466;11.086;2023-07-02T12:30:13;7.10;;;5.60;;
1414;SDS011;702;49.466;11.086;2023-07-02T12:32:42;10.97;;;6.00;;
1414;SDS011;702;49.466;11.086;2023-07-02T12:35:10;9.17;;;6.33;;
1414;SDS011;702;49.466;11.086;2023-07-02T12:37:42;9.63;;;6.27;;
1414;SDS011;702;49.466;11.086;2023-07-02T12:40:11;9.50;;;5.00;;
1414;SDS011;702;49.466;11.086;2023-07-02T12:42:43;10.47;;;6.27;;
1414;SDS011;702;49.466;11.086;2023-07-02T12:45:11;7.13;;;5.70;;
1414;SDS011;702;49.466;11.086;2023-07-02T12:47:40;6.73;;;4.93;;
1414;SDS011;702;49.466;11.086;2023-07-02T12:50:09;8.10;;;5.27;;
1414;SDS011;702;49.466;11.086;2023-07-02T12:52:37;7.40;;;5.13;;
1414;SDS011;702;49.466;11.086;2023-07-02T12:55:06;8.10;;;5.67;;
1414;SDS011;702;49.466;11.086;2023-07-02T12:57:34;8.93;;;5.50;;
1414;SDS011;702;49.466;11.086;2023-07-02T13:00:04;10.47;;;6.40;;
1414;SDS011;702;49.466;11.086;2023-07-02T13:02:34;10.67;;;6.20;;
1414;SDS011;702;49.466;11.086;2023-07-02T13:05:01;8.57;;;6.07;;
1414;SDS011;702;49.466;11.086;2023-07-02T13:07:29;7.27;;;5.17;;
1414;SDS011;702;49.466;11.086;2023-07-02T13:09:56;8.47;;;5.40;;
1414;SDS011;702;49.466;11.086;2023-07-02T13:12:25;7.80;;;5.20;;
1414;SDS011;702;49.466;11.086;2023-07-02T13:14:52;7.30;;;5.53;;
1414;SDS011;702;49.466;11.086;2023-07-02T13:17:21;7.63;;;5.20;;
1414;SDS011;702;49.466;11.086;2023-07-02T13:19:48;12.10;;;5.20;;
1414;SDS011;702;49.466;11.086;2023-07-02T13:22:16;8.17;;;6.10;;
1414;SDS011;702;49.466;11.086;2023-07-02T13:24:43;8.27;;;6.10;;
1414;SDS011;702;49.466;11.086;2023-07-02T13:27:12;8.93;;;5.83;;
1414;SDS011;702;49.466;11.086;2023-07-02T13:29:42;8.27;;;6.50;;
1414;SDS011;702;49.466;11.086;2023-07-02T13:32:09;10.30;;;6.03;;
1414;SDS011;702;49.466;11.086;2023-07-02T13:34:39;9.43;;;5.60;;
1414;SDS011;702;49.466;11.086;2023-07-02T13:37:06;11.50;;;6.47;;
1414;SDS011;702;49.466;11.086;2023-07-02T13:39:35;10.20;;;6.93;;
1414;SDS011;702;49.466;11.086;2023-07-02T13:42:03;8.17;;;6.10;;
1414;SDS011;702;49.466;11.086;2023-07-02T13:44:31;11.03;;;7.43;;
1414;SDS011;702;49.466;11.086;2023-07-02T13:46:59;8.53;;;6.50;;
1414;SDS011;702;49.466;11.086;2023-07-02T13:49:26;9.63;;;7.10;;
1414;SDS011;702;49.466;11.086;2023-07-02T13:51:56;12.33;;;7.60;;
1414;SDS011;702;49.466;11.086;2023-07-02T13:54:23;10.20;;;7.03;;
1414;SDS011;702;49.466;11.086;2023-07-02T13:56:51;10.50;;;7.37;;
1414;SDS011;702;49.466;11.086;2023-07-02T13:59:20;11.67;;;7.00;;
1414;SDS011;702;49.466;11.086;2023-07-02T14:01:47;9.40;;;6.90;;
1414;SDS011;702;49.466;11.086;2023-07-02T14:04:17;11.63;;;7.53;;
1414;SDS011;702;49.466;11.086;2023-07-02T14:06:44;12.63;;;8.33;;
1414;SDS011;702;49.466;11.086;2023-07-02T14:09:12;12.73;;;7.57;;
1414;SDS011;702;49.466;11.086;2023-07-02T14:11:40;10.63;;;8.20;;
1414;SDS011;702;49.466;11.086;2023-07-02T14:14:09;14.50;;;9.67;;
1414;SDS011;702;49.466;11.086;2023-07-02T14:16:38;11.97;;;9.57;;
1414;SDS011;702;49.466;11.086;2023-07-02T14:19:06;13.47;;;9.10;;
1414;SDS011;702;49.466;11.086;2023-07-02T14:21:33;12.80;;;9.20;;
1414;SDS011;702;49.466;11.086;2023-07-02T14:24:00;17.33;;;8.60;;
1414;SDS011;702;49.466;11.086;2023-07-02T14:26:28;13.53;;;8.50;;
1414;SDS011;702;49.466;11.086;2023-07-02T14:28:56;13.17;;;7.93;;
1414;SDS011;702;49.466;11.086;2023-07-02T14:31:24;11.77;;;7.67;;
1414;SDS011;702;49.466;11.086;2023-07-02T14:33:53;10.13;;;8.10;;
1414;SDS011;702;49.466;11.086;2023-07-02T14:36:20;11.50;;;8.03;;
1414;SDS011;702;49.466;11.086;2023-07-02T14:38:47;10.20;;;8.30;;
1414;SDS011;702;49.466;11.086;2023-07-02T14:41:15;13.17;;;8.60;;
1414;SDS011;702;49.466;11.086;2023-07-02T14:43:42;14.60;;;8.17;;
1414;SDS011;702;49.466;11.086;2023-07-02T14:46:09;13.73;;;8.80;;
1414;SDS011;702;49.466;11.086;2023-07-02T14:48:37;15.20;;;8.27;;
1414;SDS011;702;49.466;11.086;2023-07-02T14:51:07;14.50;;;7.90;;
1414;SDS011;702;49.466;11.086;2023-07-02T14:53:35;12.23;;;7.87;;
1414;SDS011;702;49.466;11.086;2023-07-02T14:56:02;11.97;;;7.60;;
1414;SDS011;702;49.466;11.086;2023-07-02T14:58:30;11.53;;;7.97;;
1414;SDS011;702;49.466;11.086;2023-07-02T15:00:58;11.50;;;7.80;;
1414;SDS011;702;49.466;11.086;2023-07-02T15:03:26;11.53;;;7.67;;
1414;SDS011;702;49.466;11.086;2023-07-02T15:06:04;14.33;;;8.97;;
1414;SDS011;702;49.466;11.086;2023-07-02T15:08:35;13.37;;;7.80;;
1414;SDS011;702;49.466;11.086;2023-07-02T15:11:02;10.90;;;8.03;;
1414;SDS011;702;49.466;11.086;2023-07-02T15:13:30;11.53;;;7.30;;
1414;SDS011;702;49.466;11.086;2023-07-02T15:15:58;12.27;;;8.10;;
1414;SDS011;702;49.466;11.086;2023-07-02T15:18:25;11.67;;;8.07;;